Tuftonboro, NH

12:14 PM EDT on March 27, 2015 (GMT -0400)
Skyhaven | | Change Station
CLOSE
Current Station
Airport
Location: Rochester,
Elevation: 322 ft
Nearby Weather Stations

Elev 322 ft 43.28 °N, 70.92 °W | Updated 23 minutes ago

Overcast
Overcast
38 °F
Feels Like 36 °F
N
4
Wind Variable Wind from NE

Today
High -- | Low -- °F
--% Chance of Precip.
Yesterday
High -- | Low -- °F
Precip. -- in
6:35 AM 7:04 PM
First Quarter, 53% visible
Pressure 29.70 in
Visibility 3.0 miles
Clouds Overcast 1600 ft
Windchill 36 °F
Dew Point 35 °F
Humidity 89%
Rainfall 0.17 in
Snow Depth Not available.
UV 2 out of 12
Pollen .60 out of 12
Air Quality Not available.
Flu Activity Not available.
METAR KDAW 271551Z AUTO 05003KT 3SM BR OVC016 03/02 A2970 RMK AO2 RAE49 SLP058 P0000 T00330017

More Conditions Fewer Conditions

Pressure 29.70 in
Visibility 3.0 miles
Clouds Overcast 1600 ft
Windchill 36 °F
Dew Point 35 °F
Humidity 89%
Rainfall 0.17 in
Snow Depth Not available.
UV 2 out of 12
Pollen .60 out of 12
Air Quality Not available.
Flu Activity Not available.
METAR KDAW 271551Z AUTO 05003KT 3SM BR OVC016 03/02 A2970 RMK AO2 RAE49 SLP058 P0000 T00330017

More Conditions Fewer Conditions

10-Day Weather Forecast

Almanac

Astronomy

Mar. 27, 2015 Rise Set
Actual Time
Civil Twilight
Nautical Twilight
Astronomical Twilight
Moon
Length of Visible Light
Length of Day
Tomorrow will be .
, % of the Moon is Illuminated

Today's Extremes

State Highs State Lows

Community

WunderPhotos

Upload Photos

1,808,766 photos uploaded!

WunderBlogs® & News

Nearby

Air Quality

  Air Quality AQ Index Pollutant
Not available.

Snow Depth

Station Depth Elevation

Earthquake Activity

City Distance Mag. Time & Date
Minimum magnitude displayed is 2.5.

Coastal Water Temperatures

Place Temperature

Stations

Nearby Weather Stations

Station Location Temp. Windchill Dew Point Humidity Wind Precip. Elev Updated Type